»·PEaware :: SWA1696 KSAN-KLAS

SWA1696 :: KSAN-KLAS

FLIGHT INFORMATION

Flight Status: Arrived
Operator:
Southwest Airlines
More flights by this operator :: More flights under this callsign
Pilot: Alfredo R. (12181)
Aircraft: BOEING 737-800
(B738)
More flights by this aircraft type
Origin: KSAN San Diego Intl-Lindbergh
United States
Destination: KLAS McCarran Intl
United States
More flights between these airports :: More routes between these airports
Route: +PADRZ2 CHKNN SEBBY YELAH MISEN KEPEC6
File this flight plan on PilotEdge
Remarks:
Altitude:
(Current/Filed)
29,000ft
Speed:
(Current/Filed)
430kts
Departed: 10-Jan-18 09:16 PM
Arrived: 10-Jan-18 10:15 PM
Distance/Time
Traveled:
225nm/0:59
Distance/Time
To Go:
Arrived

Flight Plot

Page will automatically refresh every two minutes.

Flight plan parsing failed; only flown route is shown


Map Options




Map Legend


Flown Route
Filed Route
Departure Airport
Arrival Airport
Navaid (VOR, NDB)
Fix

Horizontal Profiles

Position Reports

Time Latitude Longitude Heading Altitude Ground
Speed
10-Jan-18 20:51 32.732860 -117.195446 274 25ft 0kts
10-Jan-18 20:52 32.732860 -117.195446 274 25ft 0kts
10-Jan-18 20:53 32.732860 -117.195446 274 25ft 0kts
10-Jan-18 20:54 32.732860 -117.195446 274 25ft 0kts
10-Jan-18 20:55 32.732860 -117.195446 274 25ft 0kts
10-Jan-18 20:56 32.732860 -117.195446 274 25ft 0kts
10-Jan-18 20:57 32.732860 -117.195446 274 25ft 0kts
10-Jan-18 20:58 32.732860 -117.195446 274 25ft 0kts
10-Jan-18 20:59 32.732860 -117.195446 274 25ft 0kts
10-Jan-18 21:00 32.732860 -117.195446 274 25ft 0kts
10-Jan-18 21:01 32.732860 -117.195446 274 25ft 0kts
10-Jan-18 21:02 32.732860 -117.195446 274 25ft 0kts
10-Jan-18 21:03 32.732860 -117.195446 274 25ft 0kts
10-Jan-18 21:04 32.732860 -117.195446 274 25ft 0kts
10-Jan-18 21:05 32.732860 -117.195446 274 25ft 0kts
10-Jan-18 21:06 32.732860 -117.195446 274 25ft 0kts
10-Jan-18 21:07 32.732825 -117.194937 274 25ft 2kts
10-Jan-18 21:08 32.732412 -117.194732 33 25ft 1kts
10-Jan-18 21:09 32.732384 -117.194753 30 24ft 0kts
10-Jan-18 21:10 32.732384 -117.194753 30 24ft 0kts
10-Jan-18 21:11 32.732384 -117.194753 30 24ft 0kts
10-Jan-18 21:12 32.732384 -117.194753 30 24ft 0kts
10-Jan-18 21:13 32.732595 -117.194612 29 24ft 3kts
10-Jan-18 21:14 32.732994 -117.194347 29 24ft 1kts
10-Jan-18 21:15 32.733290 -117.192796 105 25ft 8kts
10-Jan-18 21:16 32.732440 -117.189279 105 24ft 13kts
10-Jan-18 21:17 32.731356 -117.184799 107 24ft 15kts
10-Jan-18 21:18 32.730205 -117.180079 106 24ft 13kts
10-Jan-18 21:19 32.729508 -117.176852 80 24ft 3kts
10-Jan-18 21:20 32.729762 -117.175973 53 24ft 5kts
10-Jan-18 21:21 32.730602 -117.177502 285 24ft 14kts
10-Jan-18 21:22 32.733062 -117.187528 287 25ft 96kts
10-Jan-18 21:23 32.747554 -117.235521 312 1143ft 176kts
10-Jan-18 21:24 32.776744 -117.289081 315 2570ft 216kts
10-Jan-18 21:25 32.819280 -117.348283 311 4877ft 250kts
10-Jan-18 21:26 32.861246 -117.413987 312 7776ft 256kts
10-Jan-18 21:27 32.905013 -117.481970 312 10387ft 269kts
10-Jan-18 21:28 32.952937 -117.556464 311 12642ft 291kts
10-Jan-18 21:29 33.001758 -117.632747 310 15215ft 296kts
10-Jan-18 21:30 33.051184 -117.710043 309 18073ft 304kts
10-Jan-18 21:31 33.111632 -117.778766 319 20642ft 312kts
10-Jan-18 21:32 33.178138 -117.845982 318 23159ft 321kts
10-Jan-18 21:33 33.247369 -117.914307 320 25378ft 332kts
10-Jan-18 21:34 33.318430 -117.983876 320 27776ft 331kts
10-Jan-18 21:35 33.399171 -118.030360 356 29181ft 358kts
10-Jan-18 21:36 33.502051 -117.996544 9 29178ft 412kts
10-Jan-18 21:37 33.613409 -117.955231 10 29163ft 423kts
10-Jan-18 21:38 33.724434 -117.913870 10 29162ft 423kts
10-Jan-18 21:39 33.835979 -117.872182 9 29152ft 419kts
10-Jan-18 21:40 33.947049 -117.830601 9 29150ft 420kts
10-Jan-18 21:41 34.058043 -117.788849 10 29165ft 420kts
10-Jan-18 21:42 34.148821 -117.691894 42 29182ft 459kts
10-Jan-18 21:43 34.228446 -117.571756 41 29164ft 457kts
10-Jan-18 21:44 34.308328 -117.452699 40 29164ft 457kts
10-Jan-18 21:45 34.388293 -117.333869 41 29174ft 458kts
10-Jan-18 21:46 34.468519 -117.214715 40 29170ft 454kts
10-Jan-18 21:47 34.548201 -117.096673 40 29172ft 454kts
10-Jan-18 21:48 34.628194 -116.978283 40 29145ft 454kts
10-Jan-18 21:49 34.708072 -116.860245 40 29144ft 454kts
10-Jan-18 21:50 34.787775 -116.742603 40 29138ft 453kts
10-Jan-18 21:51 34.867034 -116.630671 28 27793ft 417kts
10-Jan-18 21:52 34.958970 -116.542846 28 26326ft 425kts
10-Jan-18 21:53 35.050505 -116.454108 28 24890ft 404kts
10-Jan-18 21:54 35.130813 -116.369029 35 23556ft 379kts
10-Jan-18 21:55 35.203597 -116.276292 35 22292ft 376kts
10-Jan-18 21:56 35.274860 -116.185882 35 21000ft 362kts
10-Jan-18 21:57 35.344025 -116.098373 35 19813ft 355kts
10-Jan-18 21:58 35.411608 -116.012916 34 18626ft 348kts
10-Jan-18 21:59 35.477658 -115.929478 35 17440ft 340kts
10-Jan-18 22:00 35.542718 -115.847352 35 16239ft 329kts
10-Jan-18 22:01 35.602794 -115.771467 34 14997ft 297kts
10-Jan-18 22:02 35.657832 -115.702122 34 13761ft 273kts
10-Jan-18 22:03 35.710181 -115.635714 35 13021ft 272kts
10-Jan-18 22:04 35.766396 -115.577658 4 13030ft 252kts
10-Jan-18 22:05 35.835215 -115.571627 358 13015ft 249kts
10-Jan-18 22:06 35.904030 -115.567436 357 13014ft 249kts
10-Jan-18 22:07 35.971127 -115.549896 33 12660ft 274kts
10-Jan-18 22:08 36.003302 -115.464410 58 11707ft 270kts
10-Jan-18 22:09 36.025678 -115.392682 58 10941ft 269kts
10-Jan-18 22:10 36.024607 -115.281091 88 9884ft 285kts
10-Jan-18 22:11 36.017379 -115.185129 86 8945ft 279kts
10-Jan-18 22:12 36.012115 -115.108530 86 8107ft 259kts
10-Jan-18 22:13 36.006747 -115.021871 86 7398ft 258kts
10-Jan-18 22:14 35.998327 -114.923377 91 6248ft 248kts
10-Jan-18 22:15 36.002395 -114.856493 40 5306ft 222kts
10-Jan-18 22:16 36.043938 -114.869864 299 4877ft 174kts
10-Jan-18 22:17 36.070975 -114.926666 299 4416ft 211kts
10-Jan-18 22:18 36.074701 -114.996971 267 3964ft 210kts
10-Jan-18 22:19 36.072276 -115.064501 283 3161ft 181kts
10-Jan-18 22:20 36.073596 -115.122925 269 2135ft 160kts
10-Jan-18 22:21 36.074035 -115.149004 290 2115ft 17kts
10-Jan-18 22:22 36.074519 -115.150116 302 2119ft 1kts
10-Jan-18 22:23 36.076677 -115.152118 333 2122ft 14kts
10-Jan-18 22:24 36.078009 -115.150769 93 2114ft 13kts
10-Jan-18 22:25 36.078844 -115.147851 2 2102ft 7kts
10-Jan-18 22:26 36.079923 -115.147120 56 2096ft 1kts
10-Jan-18 22:27 36.079924 -115.147117 56 2096ft 0kts
10-Jan-18 22:28 36.079924 -115.147117 56 2096ft 0kts
10-Jan-18 22:29 36.079924 -115.147117 56 2096ft 0kts
10-Jan-18 22:30 36.079924 -115.147117 56 2096ft 0kts
10-Jan-18 22:31 36.079924 -115.147117 56 2096ft 0kts
10-Jan-18 22:32 36.079924 -115.147117 56 2096ft 0kts
10-Jan-18 22:33 36.079924 -115.147117 56 2096ft 0kts
10-Jan-18 22:34 36.079924 -115.147117 56 2096ft 0kts

Navigation Log

Ident Type
Flight plan parsing failed, navigation log unavailable